Terminal Aerodrome Forecast
Issued by NWS Boston, MA

Home | Current Version | Previous Version | Text Only | Print | Product List | Glossary On
Versions: 1 2 3 4 5 6 7 8 9 10 11 12 13 14 15 16 17 18 19 20 21 22 23 24 25 26 27 28
000
FTUS41 KBOX 281731 AAB
TAFBOS
TAF AMD
KBOS 281731Z 2818/2924 04014G21KT P6SM -DZ OVC012
     FM290300 04015G22KT 4SM -DZ BR OVC008
     FM290600 04016KT 4SM -DZ BR OVC008
     FM291800 06014G21KT P6SM BKN015
     FM292300 06013G20KT P6SM BKN020=

USA.gov is the U.S. government's official web portal to all federal, state and local government web resources and services.